createdAt,value
2022-11-13T00:01:35.785Z,5.37
2022-11-13T00:03:37.414Z,5.37
2022-11-13T00:05:38.841Z,5.36
2022-11-13T00:07:40.301Z,5.35
2022-11-13T00:09:41.743Z,5.35
2022-11-13T00:11:43.279Z,5.33
2022-11-13T00:13:44.875Z,5.33
2022-11-13T00:15:56.650Z,5.33
2022-11-13T00:18:01.479Z,5.32
2022-11-13T00:20:04.036Z,5.31
2022-11-13T00:22:05.534Z,5.31
2022-11-13T00:24:07.431Z,5.29
2022-11-13T00:26:14.617Z,5.27
2022-11-13T00:28:16.138Z,5.24
2022-11-13T00:30:19.536Z,5.22
2022-11-13T00:32:21.222Z,5.22
2022-11-13T00:36:44.659Z,5.20
2022-11-13T00:38:46.463Z,5.18
2022-11-13T00:40:47.899Z,5.17
2022-11-13T00:42:49.367Z,5.16
2022-11-13T00:44:50.804Z,5.15
2022-11-13T00:46:52.285Z,5.14
2022-11-13T00:48:53.721Z,5.14
2022-11-13T00:50:55.155Z,5.14
2022-11-13T00:52:56.737Z,5.12
2022-11-13T00:54:58.202Z,5.12
2022-11-13T00:56:59.661Z,5.10
2022-11-13T00:59:01.100Z,5.09
2022-11-13T01:01:08.933Z,5.10
2022-11-13T01:03:11.219Z,5.07
2022-11-13T01:05:12.751Z,5.07
2022-11-13T01:07:14.227Z,5.07
2022-11-13T01:09:15.774Z,5.03
2022-11-13T01:11:22.709Z,5.02
2022-11-13T01:13:24.148Z,5.02
2022-11-13T01:15:26.086Z,5.01
2022-11-13T01:17:27.598Z,5.02
2022-11-13T01:19:29.086Z,5.01
2022-11-13T01:21:30.603Z,5.00
2022-11-13T01:23:32.642Z,4.99
2022-11-13T01:25:34.148Z,4.98
2022-11-13T01:27:37.085Z,4.97
2022-11-13T01:29:38.637Z,4.96
2022-11-13T01:31:40.122Z,4.94
2022-11-13T01:33:41.570Z,4.94
2022-11-13T01:35:43.050Z,4.94
2022-11-13T01:37:44.499Z,4.92
2022-11-13T01:39:45.917Z,4.93
2022-11-13T01:41:47.349Z,4.93
2022-11-13T01:43:56.479Z,4.94
2022-11-13T01:45:57.855Z,4.95
2022-11-13T01:47:59.573Z,4.97
2022-11-13T01:50:02.307Z,4.95
2022-11-13T01:52:08.419Z,4.94
2022-11-13T01:54:17.050Z,4.95
2022-11-13T01:56:18.814Z,4.93
2022-11-13T01:58:20.758Z,4.92
2022-11-13T02:00:22.284Z,4.92
2022-11-13T02:02:23.794Z,4.93
2022-11-13T02:04:26.369Z,4.92
2022-11-13T02:06:33.319Z,4.90
2022-11-13T02:08:34.816Z,4.89
2022-11-13T02:10:36.301Z,4.88
2022-11-13T02:12:42.837Z,4.89
2022-11-13T02:14:49.142Z,4.87
2022-11-13T02:16:56.268Z,4.87
2022-11-13T02:18:57.919Z,4.85
2022-11-13T02:21:06.992Z,4.86
2022-11-13T02:23:20.885Z,4.86
2022-11-13T02:25:24.915Z,4.85
2022-11-13T02:27:33.958Z,4.87
2022-11-13T02:29:35.373Z,4.87
2022-11-13T02:31:36.939Z,4.88
2022-11-13T02:33:38.517Z,4.88
2022-11-13T02:35:39.951Z,4.90
2022-11-13T02:37:41.962Z,4.89
2022-11-13T02:39:43.449Z,4.90
2022-11-13T02:41:44.949Z,4.90
2022-11-13T02:43:46.473Z,4.87
2022-11-13T02:45:47.893Z,4.86
2022-11-13T02:47:49.781Z,4.85
2022-11-13T02:49:51.230Z,4.86
2022-11-13T02:51:52.644Z,4.87
2022-11-13T02:53:54.439Z,4.87
2022-11-13T02:55:55.904Z,4.87
2022-11-13T02:57:57.358Z,4.87
2022-11-13T02:59:58.793Z,4.86
2022-11-13T03:02:00.303Z,4.87
2022-11-13T03:04:01.752Z,4.87
2022-11-13T03:06:03.485Z,4.86
2022-11-13T03:08:06.801Z,4.88
2022-11-13T03:10:09.979Z,4.87
2022-11-13T03:12:11.488Z,4.87
2022-11-13T03:14:12.977Z,4.87
2022-11-13T03:16:17.271Z,4.87
2022-11-13T03:18:18.800Z,4.86
2022-11-13T03:20:20.231Z,4.87
2022-11-13T03:22:21.670Z,4.87
2022-11-13T03:24:23.185Z,4.86
2022-11-13T03:26:24.733Z,4.88
2022-11-13T03:28:26.423Z,4.87
2022-11-13T03:30:28.587Z,4.88
2022-11-13T03:32:30.038Z,4.88
2022-11-13T03:34:32.104Z,4.88
2022-11-13T03:36:33.555Z,4.87
2022-11-13T03:38:35.495Z,4.87
2022-11-13T03:40:36.945Z,4.87
2022-11-13T03:42:38.440Z,4.85
2022-11-13T03:44:39.889Z,4.86
2022-11-13T03:46:41.304Z,4.85
2022-11-13T03:48:42.754Z,4.85
2022-11-13T03:50:46.739Z,4.84
2022-11-13T03:52:48.164Z,4.83
2022-11-13T03:54:49.614Z,4.83
2022-11-13T03:56:51.059Z,4.81
2022-11-13T03:58:52.494Z,4.83
2022-11-13T04:00:55.777Z,4.82
2022-11-13T04:02:57.354Z,4.80
2022-11-13T04:04:58.827Z,4.80
2022-11-13T04:07:00.434Z,4.81
2022-11-13T04:09:01.976Z,4.79
2022-11-13T04:11:12.134Z,4.78
2022-11-13T04:13:13.624Z,4.77
2022-11-13T04:15:15.263Z,4.78
2022-11-13T04:17:16.743Z,4.76
2022-11-13T04:19:18.249Z,4.74
2022-11-13T04:21:19.729Z,4.71
2022-11-13T04:23:21.172Z,4.69
2022-11-13T04:25:23.242Z,4.66
2022-11-13T04:27:24.685Z,4.63
2022-11-13T04:29:26.114Z,4.60
2022-11-13T04:31:27.561Z,4.57
2022-11-13T04:33:29.036Z,4.54
2022-11-13T04:35:30.471Z,4.54
2022-11-13T04:37:31.924Z,4.55
2022-11-13T04:39:33.408Z,4.54
2022-11-13T04:41:55.594Z,4.52
2022-11-13T04:43:57.228Z,4.50
2022-11-13T04:45:58.649Z,4.50
2022-11-13T04:48:00.166Z,4.50
2022-11-13T04:50:01.992Z,4.50
2022-11-13T04:52:03.495Z,4.49
2022-11-13T04:54:04.979Z,4.47
2022-11-13T04:56:06.662Z,4.44
2022-11-13T04:58:08.067Z,4.43
2022-11-13T05:00:10.224Z,4.44
2022-11-13T05:02:11.957Z,4.43
2022-11-13T05:04:15.173Z,4.43
2022-11-13T05:06:16.690Z,4.41
2022-11-13T05:08:18.145Z,4.41
2022-11-13T05:10:19.642Z,4.40
2022-11-13T05:12:21.458Z,4.40
2022-11-13T05:14:23.013Z,4.40
2022-11-13T05:16:24.561Z,4.40
2022-11-13T05:18:26.849Z,4.40
2022-11-13T05:20:28.546Z,4.39
2022-11-13T05:22:30.001Z,4.39
2022-11-13T05:24:32.005Z,4.38
2022-11-13T05:26:33.474Z,4.37
2022-11-13T05:28:35.382Z,4.35
2022-11-13T05:30:36.902Z,4.32
2022-11-13T05:32:38.475Z,4.29
2022-11-13T05:34:40.050Z,4.28
2022-11-13T05:36:41.544Z,4.27
2022-11-13T05:38:44.029Z,4.27
2022-11-13T05:40:45.550Z,4.28
2022-11-13T05:42:47.016Z,4.28
2022-11-13T05:44:48.581Z,4.28
2022-11-13T05:46:50.066Z,4.27
2022-11-13T05:48:55.357Z,4.27
2022-11-13T05:51:11.274Z,4.26
2022-11-13T05:53:12.687Z,4.24
2022-11-13T05:55:14.198Z,4.25
2022-11-13T05:57:15.690Z,4.22
2022-11-13T05:59:17.172Z,4.22
2022-11-13T06:01:20.147Z,4.22
2022-11-13T06:03:21.580Z,4.20
2022-11-13T06:05:22.998Z,4.17
2022-11-13T06:07:24.450Z,4.16
2022-11-13T06:09:26.003Z,4.15
2022-11-13T06:11:29.263Z,4.13
2022-11-13T06:13:31.195Z,4.10
2022-11-13T06:15:32.646Z,4.09
2022-11-13T06:17:34.118Z,4.07
2022-11-13T06:19:35.569Z,4.07
2022-11-13T06:21:40.347Z,4.07
2022-11-13T06:23:42.656Z,4.06
2022-11-13T06:25:44.265Z,4.06
2022-11-13T06:27:45.687Z,4.07
2022-11-13T06:29:47.251Z,4.08
2022-11-13T06:31:48.690Z,4.09
2022-11-13T06:33:50.333Z,4.11
2022-11-13T06:35:51.814Z,4.11
2022-11-13T06:37:55.707Z,4.12
2022-11-13T06:39:57.143Z,4.12
2022-11-13T06:41:58.616Z,4.11
2022-11-13T06:44:03.032Z,4.08
2022-11-13T06:46:07.585Z,4.06
2022-11-13T06:48:09.007Z,4.03
2022-11-13T06:50:10.499Z,4.02
2022-11-13T06:52:11.907Z,4.00
2022-11-13T06:54:13.335Z,4.01
2022-11-13T06:56:15.785Z,4.01
2022-11-13T06:58:17.199Z,4.02
2022-11-13T07:00:18.818Z,4.04
2022-11-13T07:02:20.272Z,4.06
2022-11-13T07:04:21.704Z,4.10
2022-11-13T07:06:24.483Z,4.12
2022-11-13T07:08:26.188Z,4.14
2022-11-13T07:10:27.844Z,4.17
2022-11-13T07:12:29.350Z,4.19
2022-11-13T07:14:30.772Z,4.22
2022-11-13T07:16:56.145Z,4.24
2022-11-13T07:18:54.317Z,4.26
2022-11-13T07:20:55.818Z,4.27
2022-11-13T07:22:58.676Z,4.30
2022-11-13T07:25:00.130Z,4.34
2022-11-13T07:27:01.644Z,4.37
2022-11-13T07:29:03.078Z,4.42
2022-11-13T07:31:05.373Z,4.45
2022-11-13T07:33:06.789Z,4.47
2022-11-13T07:35:08.801Z,4.48
2022-11-13T07:37:10.231Z,4.51
2022-11-13T07:39:11.689Z,4.55
2022-11-13T07:41:13.172Z,4.57
2022-11-13T07:43:14.644Z,4.62
2022-11-13T07:45:16.169Z,4.65
2022-11-13T07:47:17.603Z,4.67
2022-11-13T07:49:19.069Z,4.69
2022-11-13T07:51:20.760Z,4.72
2022-11-13T07:53:23.009Z,4.72
2022-11-13T07:55:24.707Z,4.77
2022-11-13T07:57:27.235Z,4.77
2022-11-13T07:59:29.003Z,4.80
2022-11-13T08:01:30.515Z,4.83
2022-11-13T08:03:32.627Z,4.87
2022-11-13T08:05:34.243Z,4.91
2022-11-13T08:07:35.736Z,4.91
2022-11-13T08:09:37.155Z,4.97
2022-11-13T08:11:38.703Z,5.02
2022-11-13T08:13:40.178Z,5.09
2022-11-13T08:15:41.597Z,5.13
2022-11-13T08:17:43.080Z,5.15
2022-11-13T08:19:44.511Z,5.21
2022-11-13T08:21:45.980Z,5.22
2022-11-13T08:23:47.643Z,5.24
2022-11-13T08:25:49.160Z,5.29
2022-11-13T08:27:53.099Z,5.34
2022-11-13T08:29:54.641Z,5.38
2022-11-13T08:31:56.097Z,5.43
2022-11-13T08:33:57.780Z,5.46
2022-11-13T08:36:00.113Z,5.54
2022-11-13T08:38:03.411Z,5.55
2022-11-13T08:40:05.501Z,5.61
2022-11-13T08:42:07.017Z,5.62
2022-11-13T08:44:08.597Z,5.68
2022-11-13T08:46:10.501Z,5.73
2022-11-13T08:48:12.214Z,5.77
2022-11-13T08:50:13.939Z,5.75
2022-11-13T08:52:15.692Z,5.81
2022-11-13T08:54:17.704Z,5.85
2022-11-13T08:56:20.007Z,5.89
2022-11-13T08:58:21.434Z,5.95
2022-11-13T09:00:22.987Z,5.99
2022-11-13T09:02:25.218Z,6.03
2022-11-13T09:04:26.922Z,6.05
2022-11-13T09:06:28.581Z,6.07
2022-11-13T09:08:31.979Z,6.10
2022-11-13T09:10:33.472Z,6.11
2022-11-13T09:12:34.995Z,6.13
2022-11-13T09:14:37.035Z,6.15
2022-11-13T09:16:38.497Z,6.18
2022-11-13T09:18:39.980Z,6.24
2022-11-13T09:20:41.453Z,6.26
2022-11-13T09:22:42.891Z,6.31
2022-11-13T09:24:44.312Z,6.34
2022-11-13T09:26:45.941Z,6.37
2022-11-13T09:28:47.392Z,6.40
2022-11-13T09:30:48.821Z,6.44
2022-11-13T09:32:58.204Z,6.49
2022-11-13T09:34:59.643Z,6.54
2022-11-13T09:37:01.069Z,6.59
2022-11-13T09:39:03.878Z,6.61
2022-11-13T09:41:09.996Z,6.68
2022-11-13T09:43:35.029Z,6.74
2022-11-13T09:45:36.901Z,6.74
2022-11-13T09:47:44.147Z,6.78
2022-11-13T09:49:58.805Z,6.84
2022-11-13T09:52:06.853Z,6.93
2022-11-13T09:54:14.368Z,6.95
2022-11-13T09:56:32.393Z,7.07
2022-11-13T09:58:48.548Z,7.10
2022-11-13T10:00:50.583Z,7.12
2022-11-13T10:03:39.132Z,7.18
2022-11-13T10:06:19.575Z,7.27
2022-11-13T10:08:47.293Z,7.32
2022-11-13T10:11:13.113Z,7.35
2022-11-13T10:13:29.669Z,7.42
2022-11-13T10:15:31.617Z,7.42
2022-11-13T10:17:38.685Z,7.51
2022-11-13T10:20:00.176Z,7.57
2022-11-13T10:22:33.996Z,7.68
2022-11-13T10:24:45.797Z,7.81
2022-11-13T10:26:47.218Z,7.93
2022-11-13T10:29:02.637Z,8.06
2022-11-13T10:31:04.212Z,8.14
2022-11-13T10:33:08.290Z,8.25
2022-11-13T10:35:18.115Z,8.33
2022-11-13T10:37:34.940Z,8.49
2022-11-13T10:39:44.044Z,8.59
2022-11-13T10:41:51.233Z,8.81
2022-11-13T10:44:04.475Z,9.01
2022-11-13T10:46:06.043Z,9.10
2022-11-13T10:48:20.046Z,9.35
2022-11-13T10:50:27.895Z,9.77
2022-11-13T10:52:29.372Z,10.29
2022-11-13T10:54:33.109Z,11.04
2022-11-13T10:56:35.788Z,12.05
2022-11-13T10:58:37.230Z,12.88
2022-11-13T11:00:44.921Z,13.59
2022-11-13T11:02:50.532Z,14.42
2022-11-13T11:05:02.743Z,14.92
2022-11-13T11:07:20.395Z,15.29
2022-11-13T11:09:26.454Z,15.56
2022-11-13T11:11:46.208Z,15.80
2022-11-13T11:13:48.717Z,16.03
2022-11-13T11:16:02.225Z,16.50
2022-11-13T11:18:14.697Z,16.80
2022-11-13T11:20:19.413Z,17.00
2022-11-13T11:22:27.911Z,17.15
2022-11-13T11:24:42.249Z,17.15
2022-11-13T11:26:50.873Z,16.66
2022-11-13T11:29:01.038Z,16.20
2022-11-13T11:31:11.977Z,15.38
2022-11-13T11:33:47.473Z,15.07
2022-11-13T11:36:08.952Z,15.21
2022-11-13T11:38:28.555Z,14.96
2022-11-13T11:40:38.091Z,14.61
2022-11-13T11:42:48.603Z,14.31
2022-11-13T11:45:27.524Z,13.93
2022-11-13T11:47:29.187Z,13.63
2022-11-13T11:49:30.648Z,13.40
2022-11-13T11:51:42.132Z,13.17
2022-11-13T11:54:05.776Z,12.99
2022-11-13T11:56:28.852Z,12.80
2022-11-13T11:59:05.583Z,12.68
2022-11-13T12:01:38.003Z,12.55
2022-11-13T12:03:48.500Z,12.44
2022-11-13T12:06:01.845Z,12.36
2022-11-13T12:08:21.773Z,12.26
2022-11-13T12:10:42.970Z,12.19
2022-11-13T12:13:02.977Z,12.10
2022-11-13T12:15:26.318Z,12.03
2022-11-13T12:17:47.162Z,11.95
2022-11-13T12:20:05.167Z,11.92
2022-11-13T12:22:30.676Z,11.87
2022-11-13T12:25:05.637Z,11.84
2022-11-13T12:27:21.905Z,11.82
2022-11-13T12:29:40.937Z,11.81
2022-11-13T12:31:45.139Z,11.79
2022-11-13T12:34:07.180Z,11.75
2022-11-13T12:36:11.781Z,11.74
2022-11-13T12:38:21.507Z,11.72
2022-11-13T12:40:33.434Z,11.70
2022-11-13T12:42:54.267Z,11.67
2022-11-13T12:45:19.811Z,11.67
2022-11-13T12:47:21.906Z,11.66
2022-11-13T12:49:23.290Z,11.67
2022-11-13T12:51:24.722Z,11.65
2022-11-13T12:53:28.922Z,11.64
2022-11-13T12:55:34.557Z,11.64
2022-11-13T12:57:47.513Z,11.62
2022-11-13T12:59:50.839Z,11.61
2022-11-13T13:02:04.151Z,11.60
2022-11-13T13:04:24.244Z,11.59
2022-11-13T13:06:40.763Z,11.58
2022-11-13T13:08:46.645Z,11.55
2022-11-13T13:10:54.559Z,11.54
2022-11-13T13:13:17.150Z,11.53
2022-11-13T13:15:38.263Z,11.50
2022-11-13T13:17:41.030Z,11.51
2022-11-13T13:19:42.476Z,11.50
2022-11-13T13:21:44.826Z,11.52
2022-11-13T13:23:53.167Z,11.52
2022-11-13T13:26:28.199Z,11.54
2022-11-13T13:28:31.428Z,11.54
2022-11-13T13:30:53.002Z,11.56
2022-11-13T13:33:03.569Z,11.52
2022-11-13T13:35:34.324Z,11.54
2022-11-13T13:37:40.241Z,11.55
2022-11-13T13:40:09.831Z,11.52
2022-11-13T13:42:43.294Z,11.50
2022-11-13T13:44:58.613Z,11.46
2022-11-13T13:47:00.351Z,11.44
2022-11-13T13:49:07.292Z,11.41
2022-11-13T13:51:31.693Z,11.38
2022-11-13T13:53:36.248Z,11.37
2022-11-13T13:55:43.743Z,11.35
2022-11-13T13:57:46.158Z,11.33
2022-11-13T13:59:47.812Z,11.31
2022-11-13T14:02:00.459Z,11.30
2022-11-13T14:04:12.335Z,11.29
2022-11-13T14:06:24.667Z,11.28
2022-11-13T14:08:27.329Z,11.24
2022-11-13T14:10:29.011Z,11.22
2022-11-13T14:12:30.424Z,11.20
2022-11-13T14:14:32.819Z,11.17
2022-11-13T14:16:34.580Z,11.14
2022-11-13T14:18:36.356Z,11.10
2022-11-13T14:20:48.384Z,11.08
2022-11-13T14:22:55.411Z,11.04
2022-11-13T14:25:01.573Z,10.97
2022-11-13T14:27:07.333Z,10.91
2022-11-13T14:29:40.167Z,10.86
2022-11-13T14:31:41.732Z,10.79
2022-11-13T14:33:49.548Z,10.71
2022-11-13T14:35:55.006Z,10.64
2022-11-13T14:37:56.447Z,10.57
2022-11-13T14:40:01.965Z,10.52
2022-11-13T14:42:03.782Z,10.48
2022-11-13T14:44:05.602Z,10.42
2022-11-13T14:46:28.363Z,10.37
2022-11-13T14:48:34.629Z,10.31
2022-11-13T14:50:37.055Z,10.26
2022-11-13T14:52:38.542Z,10.19
2022-11-13T14:55:13.002Z,10.14
2022-11-13T14:57:10.304Z,10.06
2022-11-13T14:59:19.547Z,9.97
2022-11-13T15:01:25.141Z,9.91
2022-11-13T15:03:27.717Z,9.83
2022-11-13T15:05:29.758Z,9.78
2022-11-13T15:07:34.208Z,9.69
2022-11-13T15:09:35.666Z,9.62
2022-11-13T15:11:40.236Z,9.56
2022-11-13T15:13:41.895Z,9.49
2022-11-13T15:15:43.580Z,9.40
2022-11-13T15:17:46.867Z,9.34
2022-11-13T15:19:52.696Z,9.27
2022-11-13T15:22:25.257Z,9.19
2022-11-13T15:24:16.592Z,9.11
2022-11-13T15:26:18.111Z,9.02
2022-11-13T15:28:19.523Z,8.90
2022-11-13T15:30:21.156Z,8.81
2022-11-13T15:32:23.088Z,8.72
2022-11-13T15:34:24.530Z,8.61
2022-11-13T15:36:26.240Z,8.54
2022-11-13T15:38:27.728Z,8.42
2022-11-13T15:40:29.191Z,8.40
2022-11-13T15:42:34.808Z,8.31
2022-11-13T15:44:36.256Z,8.18
2022-11-13T15:46:37.718Z,8.09
2022-11-13T15:48:39.175Z,8.07
2022-11-13T15:50:40.660Z,8.01
2022-11-13T15:52:46.409Z,8.02
2022-11-13T15:54:48.438Z,8.01
2022-11-13T15:56:49.873Z,8.00
2022-11-13T15:58:51.664Z,7.98
2022-11-13T16:00:53.159Z,7.98
2022-11-13T16:02:56.665Z,7.93
2022-11-13T16:04:58.220Z,7.92
2022-11-13T16:06:59.724Z,7.93
2022-11-13T16:09:04.784Z,7.91
2022-11-13T16:11:07.053Z,7.83
2022-11-13T16:13:08.477Z,7.74
2022-11-13T16:15:13.846Z,7.71
2022-11-13T16:17:20.776Z,7.66
2022-11-13T16:19:24.254Z,7.64
2022-11-13T16:21:25.680Z,7.55
2022-11-13T16:23:27.644Z,7.46
2022-11-13T16:25:29.251Z,7.44
2022-11-13T16:27:33.985Z,7.47
2022-11-13T16:29:35.463Z,7.49
2022-11-13T16:31:36.895Z,7.52
2022-11-13T16:33:38.457Z,7.51
2022-11-13T16:35:40.066Z,7.45
2022-11-13T16:37:41.896Z,7.44
2022-11-13T16:39:44.722Z,7.44
2022-11-13T16:41:46.441Z,7.40
2022-11-13T16:43:47.893Z,7.36
2022-11-13T16:45:49.379Z,7.32
2022-11-13T16:47:50.978Z,7.32
2022-11-13T16:49:52.798Z,7.31
2022-11-13T16:51:54.402Z,7.30
2022-11-13T16:53:55.853Z,7.28
2022-11-13T16:55:57.415Z,7.28
2022-11-13T16:57:58.839Z,7.28
2022-11-13T17:00:00.305Z,7.27
2022-11-13T17:02:01.825Z,7.25
2022-11-13T17:04:04.060Z,7.30
2022-11-13T17:06:05.701Z,7.32
2022-11-13T17:08:12.009Z,7.34
2022-11-13T17:10:32.590Z,7.32
2022-11-13T17:12:34.707Z,7.35
2022-11-13T17:14:36.445Z,7.38
2022-11-13T17:16:38.133Z,7.39
2022-11-13T17:18:39.616Z,7.40
2022-11-13T17:20:41.107Z,7.40
2022-11-13T17:22:48.209Z,7.39
2022-11-13T17:24:52.464Z,7.40
2022-11-13T17:26:53.942Z,7.41
2022-11-13T17:28:55.625Z,7.42
2022-11-13T17:31:08.783Z,7.44
2022-11-13T17:33:10.200Z,7.43
2022-11-13T17:35:12.675Z,7.44
2022-11-13T17:37:14.223Z,7.44
2022-11-13T17:39:15.628Z,7.45
2022-11-13T17:41:17.689Z,7.45
2022-11-13T17:43:19.388Z,7.44
2022-11-13T17:45:20.845Z,7.42
2022-11-13T17:47:22.580Z,7.43
2022-11-13T17:49:24.016Z,7.44
2022-11-13T17:51:25.459Z,7.48
2022-11-13T17:53:27.527Z,7.49
2022-11-13T17:55:29.172Z,7.49
2022-11-13T17:57:31.823Z,7.48
2022-11-13T17:59:33.321Z,7.48
2022-11-13T18:01:34.770Z,7.48
2022-11-13T18:03:36.335Z,7.51
2022-11-13T18:05:40.715Z,7.52
2022-11-13T18:07:42.602Z,7.54
2022-11-13T18:09:44.019Z,7.55
2022-11-13T18:11:45.458Z,7.55
2022-11-13T18:13:48.364Z,7.55
2022-11-13T18:15:49.806Z,7.56
2022-11-13T18:17:51.570Z,7.58
2022-11-13T18:20:01.318Z,7.56
2022-11-13T18:22:03.383Z,7.54
2022-11-13T18:24:06.544Z,7.56
2022-11-13T18:26:14.014Z,7.59
2022-11-13T18:28:15.726Z,7.58
2022-11-13T18:30:17.848Z,7.60
2022-11-13T18:32:19.314Z,7.61
2022-11-13T18:34:20.807Z,7.62
2022-11-13T18:36:22.290Z,7.64
2022-11-13T18:38:23.731Z,7.66
2022-11-13T18:40:25.156Z,7.67
2022-11-13T18:42:26.655Z,7.66
2022-11-13T18:44:28.251Z,7.66
2022-11-13T18:46:30.694Z,7.66
2022-11-13T18:48:37.313Z,7.67
2022-11-13T18:50:38.727Z,7.67
2022-11-13T18:52:40.162Z,7.68
2022-11-13T18:54:41.608Z,7.68
2022-11-13T18:56:43.051Z,7.69
2022-11-13T18:58:46.706Z,7.71
2022-11-13T19:00:48.164Z,7.73
2022-11-13T19:02:50.238Z,7.73
2022-11-13T19:04:51.758Z,7.73
2022-11-13T19:06:53.276Z,7.75
2022-11-13T19:08:56.954Z,7.74
2022-11-13T19:11:07.142Z,7.75
2022-11-13T19:13:09.078Z,7.75
2022-11-13T19:15:10.599Z,7.74
2022-11-13T19:17:12.141Z,7.74
2022-11-13T19:19:20.211Z,7.76
2022-11-13T19:21:25.568Z,7.77
2022-11-13T19:23:27.261Z,7.77
2022-11-13T19:25:28.786Z,7.78
2022-11-13T19:27:30.293Z,7.80
2022-11-13T19:29:31.898Z,7.80
2022-11-13T19:31:34.534Z,7.80
2022-11-13T19:33:36.627Z,7.81
2022-11-13T19:35:38.093Z,7.80
2022-11-13T19:37:39.626Z,7.81
2022-11-13T19:39:41.090Z,7.82
2022-11-13T19:41:42.552Z,7.81
2022-11-13T19:43:47.971Z,7.79
2022-11-13T19:45:52.610Z,7.81
2022-11-13T19:47:54.083Z,7.82
2022-11-13T19:49:55.645Z,7.84
2022-11-13T19:51:57.064Z,7.87
2022-11-13T19:53:59.892Z,7.87
2022-11-13T19:56:01.549Z,7.87
2022-11-13T19:58:02.997Z,7.89
2022-11-13T20:00:05.391Z,7.91
2022-11-13T20:02:06.927Z,7.91
2022-11-13T20:04:11.561Z,7.92
2022-11-13T20:06:15.164Z,7.94
2022-11-13T20:08:16.617Z,7.96
2022-11-13T20:10:18.180Z,7.98
2022-11-13T20:12:19.655Z,7.99
2022-11-13T20:14:21.116Z,7.98
2022-11-13T20:16:23.657Z,8.00
2022-11-13T20:18:25.226Z,8.00
2022-11-13T20:20:26.749Z,8.02
2022-11-13T20:22:28.254Z,8.03
2022-11-13T20:24:29.716Z,8.02
2022-11-13T20:26:31.242Z,8.01
2022-11-13T20:28:33.293Z,8.03
2022-11-13T20:30:34.774Z,8.04
2022-11-13T20:32:37.976Z,8.06
2022-11-13T20:34:39.412Z,8.06
2022-11-13T20:36:40.839Z,8.07
2022-11-13T20:38:44.333Z,8.07
2022-11-13T20:40:45.787Z,8.09
2022-11-13T20:42:47.217Z,8.07
2022-11-13T20:44:48.818Z,8.08
2022-11-13T20:46:50.327Z,8.09
2022-11-13T20:48:51.988Z,8.09
2022-11-13T20:50:53.621Z,8.10
2022-11-13T20:52:55.167Z,8.09
2022-11-13T20:54:57.978Z,8.09
2022-11-13T20:56:59.734Z,8.08
2022-11-13T20:59:03.979Z,8.10
2022-11-13T21:01:14.647Z,8.09
2022-11-13T21:03:16.137Z,8.10
2022-11-13T21:05:17.696Z,8.10
2022-11-13T21:07:19.510Z,8.12
2022-11-13T21:09:21.097Z,8.13
2022-11-13T21:11:25.466Z,8.13
2022-11-13T21:13:27.403Z,8.14
2022-11-13T21:15:29.374Z,8.15
2022-11-13T21:17:30.801Z,8.14
2022-11-13T21:19:32.221Z,8.16
2022-11-13T21:21:33.709Z,8.16
2022-11-13T21:23:35.222Z,8.16
2022-11-13T21:25:36.695Z,8.16
2022-11-13T21:27:38.128Z,8.16
2022-11-13T21:29:39.554Z,8.17
2022-11-13T21:31:41.183Z,8.17
2022-11-13T21:33:43.827Z,8.18
2022-11-13T21:35:45.262Z,8.18
2022-11-13T21:37:46.703Z,8.19
2022-11-13T21:39:48.126Z,8.20
2022-11-13T21:41:49.551Z,8.21
2022-11-13T21:43:51.862Z,8.20
2022-11-13T21:45:53.289Z,8.21
2022-11-13T21:47:54.845Z,8.23
2022-11-13T21:49:56.265Z,8.21
2022-11-13T21:51:57.688Z,8.24
2022-11-13T21:53:59.500Z,8.25
2022-11-13T21:56:00.993Z,8.27
2022-11-13T21:58:02.472Z,8.28
2022-11-13T22:00:04.315Z,8.28
2022-11-13T22:02:05.812Z,8.29
2022-11-13T22:04:07.342Z,8.29
2022-11-13T22:06:18.143Z,8.31
2022-11-13T22:08:19.599Z,8.31
2022-11-13T22:10:21.054Z,8.31
2022-11-13T22:12:22.479Z,8.31
2022-11-13T22:14:23.914Z,8.31
2022-11-13T22:16:26.866Z,8.32
2022-11-13T22:18:28.607Z,8.32
2022-11-13T22:20:30.301Z,8.32
2022-11-13T22:22:31.725Z,8.33
2022-11-13T22:24:33.200Z,8.32
2022-11-13T22:26:42.927Z,8.34
2022-11-13T22:28:46.101Z,8.34
2022-11-13T22:30:47.544Z,8.35
2022-11-13T22:32:48.962Z,8.35
2022-11-13T22:34:50.405Z,8.36
2022-11-13T22:36:51.837Z,8.34
2022-11-13T22:38:53.602Z,8.35
2022-11-13T22:40:55.066Z,8.35
2022-11-13T22:42:56.489Z,8.35
2022-11-13T22:44:57.960Z,8.35
2022-11-13T22:46:59.541Z,8.37
2022-11-13T22:49:02.266Z,8.36
2022-11-13T22:51:06.759Z,8.36
2022-11-13T22:53:08.223Z,8.37
2022-11-13T22:55:09.664Z,8.37
2022-11-13T22:57:11.104Z,8.38
2022-11-13T22:59:12.940Z,8.38
2022-11-13T23:01:19.751Z,8.39
2022-11-13T23:03:21.301Z,8.38
2022-11-13T23:05:22.750Z,8.37
2022-11-13T23:07:24.226Z,8.36
2022-11-13T23:09:28.546Z,8.36
2022-11-13T23:11:40.670Z,8.35
2022-11-13T23:13:51.589Z,8.36
2022-11-13T23:15:53.132Z,8.34
2022-11-13T23:17:54.609Z,8.35
2022-11-13T23:19:56.026Z,8.33
2022-11-13T23:21:57.466Z,8.33
2022-11-13T23:23:59.032Z,8.31
2022-11-13T23:26:00.830Z,8.30
2022-11-13T23:28:03.424Z,8.29
2022-11-13T23:30:05.294Z,8.29
2022-11-13T23:32:06.823Z,8.26
2022-11-13T23:34:08.236Z,8.26
2022-11-13T23:36:11.508Z,8.25
2022-11-13T23:38:13.110Z,8.25
2022-11-13T23:40:14.620Z,8.23
2022-11-13T23:42:23.955Z,8.23
2022-11-13T23:44:34.665Z,8.20
2022-11-13T23:46:36.099Z,8.19
2022-11-13T23:48:40.026Z,8.18
2022-11-13T23:50:41.891Z,8.16
2022-11-13T23:52:43.369Z,8.15
2022-11-13T23:54:45.043Z,8.14
2022-11-13T23:56:46.447Z,8.13
2022-11-13T23:58:47.876Z,8.11
